sensor_id;sensor_type;location;lat;lon;timestamp;P1;durP1;ratioP1;P2;durP2;ratioP2
43606;SDS011;29197;44.788;10.366;2024-02-23T00:02:31;51.57;;;29.00;;
43606;SDS011;29197;44.788;10.366;2024-02-23T00:05:20;56.67;;;28.65;;
43606;SDS011;29197;44.788;10.366;2024-02-23T00:08:09;50.30;;;28.43;;
43606;SDS011;29197;44.788;10.366;2024-02-23T00:10:58;51.33;;;28.13;;
43606;SDS011;29197;44.788;10.366;2024-02-23T00:13:48;54.35;;;29.08;;
43606;SDS011;29197;44.788;10.366;2024-02-23T00:16:38;46.75;;;27.15;;
43606;SDS011;29197;44.788;10.366;2024-02-23T00:19:27;50.08;;;28.02;;
43606;SDS011;29197;44.788;10.366;2024-02-23T00:22:16;46.25;;;26.17;;
43606;SDS011;29197;44.788;10.366;2024-02-23T00:25:05;44.08;;;25.95;;
43606;SDS011;29197;44.788;10.366;2024-02-23T00:27:54;47.20;;;26.27;;
43606;SDS011;29197;44.788;10.366;2024-02-23T00:30:44;49.17;;;26.52;;
43606;SDS011;29197;44.788;10.366;2024-02-23T00:33:33;45.83;;;26.42;;
43606;SDS011;29197;44.788;10.366;2024-02-23T00:36:24;47.95;;;27.33;;
43606;SDS011;29197;44.788;10.366;2024-02-23T00:39:13;43.77;;;25.27;;
43606;SDS011;29197;44.788;10.366;2024-02-23T00:42:02;48.28;;;27.08;;
43606;SDS011;29197;44.788;10.366;2024-02-23T00:44:51;46.35;;;25.42;;
43606;SDS011;29197;44.788;10.366;2024-02-23T00:47:42;42.33;;;24.52;;
43606;SDS011;29197;44.788;10.366;2024-02-23T00:50:32;41.05;;;25.98;;
43606;SDS011;29197;44.788;10.366;2024-02-23T00:53:21;41.75;;;24.38;;
43606;SDS011;29197;44.788;10.366;2024-02-23T00:56:10;45.38;;;26.05;;
43606;SDS011;29197;44.788;10.366;2024-02-23T00:58:59;40.47;;;25.20;;
43606;SDS011;29197;44.788;10.366;2024-02-23T01:01:48;39.65;;;24.17;;
43606;SDS011;29197;44.788;10.366;2024-02-23T01:04:39;36.67;;;23.08;;
43606;SDS011;29197;44.788;10.366;2024-02-23T01:07:27;44.75;;;24.55;;
43606;SDS011;29197;44.788;10.366;2024-02-23T01:10:19;37.90;;;23.05;;
43606;SDS011;29197;44.788;10.366;2024-02-23T01:13:08;42.00;;;23.73;;
43606;SDS011;29197;44.788;10.366;2024-02-23T01:15:57;39.67;;;23.13;;
43606;SDS011;29197;44.788;10.366;2024-02-23T01:18:46;37.20;;;21.65;;
43606;SDS011;29197;44.788;10.366;2024-02-23T01:21:36;39.63;;;22.70;;
43606;SDS011;29197;44.788;10.366;2024-02-23T01:24:25;36.22;;;21.10;;
43606;SDS011;29197;44.788;10.366;2024-02-23T01:27:16;36.10;;;20.65;;
43606;SDS011;29197;44.788;10.366;2024-02-23T01:30:05;35.17;;;20.77;;
43606;SDS011;29197;44.788;10.366;2024-02-23T01:32:55;34.88;;;21.73;;
43606;SDS011;29197;44.788;10.366;2024-02-23T01:35:44;37.90;;;21.17;;
43606;SDS011;29197;44.788;10.366;2024-02-23T01:38:34;32.90;;;19.92;;
43606;SDS011;29197;44.788;10.366;2024-02-23T01:41:23;35.53;;;20.73;;
43606;SDS011;29197;44.788;10.366;2024-02-23T01:44:12;37.53;;;20.17;;
43606;SDS011;29197;44.788;10.366;2024-02-23T01:47:04;37.58;;;22.10;;
43606;SDS011;29197;44.788;10.366;2024-02-23T01:49:53;37.70;;;22.02;;
43606;SDS011;29197;44.788;10.366;2024-02-23T01:52:42;33.20;;;20.13;;
43606;SDS011;29197;44.788;10.366;2024-02-23T01:55:33;33.55;;;20.08;;
43606;SDS011;29197;44.788;10.366;2024-02-23T01:58:22;37.35;;;20.55;;
43606;SDS011;29197;44.788;10.366;2024-02-23T02:01:12;32.33;;;19.17;;
43606;SDS011;29197;44.788;10.366;2024-02-23T02:04:01;34.42;;;20.20;;
43606;SDS011;29197;44.788;10.366;2024-02-23T02:06:50;31.08;;;19.40;;
43606;SDS011;29197;44.788;10.366;2024-02-23T02:09:39;29.98;;;19.02;;
43606;SDS011;29197;44.788;10.366;2024-02-23T02:12:30;37.88;;;21.35;;
43606;SDS011;29197;44.788;10.366;2024-02-23T02:15:19;33.50;;;19.95;;
43606;SDS011;29197;44.788;10.366;2024-02-23T02:18:09;33.38;;;18.85;;
43606;SDS011;29197;44.788;10.366;2024-02-23T02:20:58;27.90;;;17.52;;
43606;SDS011;29197;44.788;10.366;2024-02-23T02:23:47;34.15;;;18.90;;
43606;SDS011;29197;44.788;10.366;2024-02-23T02:26:36;32.30;;;18.50;;
43606;SDS011;29197;44.788;10.366;2024-02-23T02:29:27;29.35;;;18.05;;
43606;SDS011;29197;44.788;10.366;2024-02-23T02:32:15;30.20;;;16.08;;
43606;SDS011;29197;44.788;10.366;2024-02-23T02:35:05;28.70;;;17.38;;
43606;SDS011;29197;44.788;10.366;2024-02-23T02:37:54;27.70;;;16.85;;
43606;SDS011;29197;44.788;10.366;2024-02-23T02:40:43;26.85;;;16.02;;
43606;SDS011;29197;44.788;10.366;2024-02-23T02:43:32;25.88;;;15.95;;
43606;SDS011;29197;44.788;10.366;2024-02-23T02:46:22;23.63;;;14.80;;
43606;SDS011;29197;44.788;10.366;2024-02-23T02:49:11;28.52;;;16.15;;
43606;SDS011;29197;44.788;10.366;2024-02-23T02:52:00;26.98;;;16.40;;
43606;SDS011;29197;44.788;10.366;2024-02-23T02:54:49;22.40;;;14.55;;
43606;SDS011;29197;44.788;10.366;2024-02-23T02:57:38;25.67;;;15.02;;
43606;SDS011;29197;44.788;10.366;2024-02-23T03:00:27;22.75;;;13.90;;
43606;SDS011;29197;44.788;10.366;2024-02-23T03:03:19;25.90;;;14.07;;
43606;SDS011;29197;44.788;10.366;2024-02-23T03:06:09;23.85;;;13.90;;
43606;SDS011;29197;44.788;10.366;2024-02-23T03:08:58;20.70;;;12.75;;
43606;SDS011;29197;44.788;10.366;2024-02-23T03:11:46;21.42;;;13.40;;
43606;SDS011;29197;44.788;10.366;2024-02-23T03:14:35;20.60;;;12.93;;
43606;SDS011;29197;44.788;10.366;2024-02-23T03:17:26;19.58;;;11.93;;
43606;SDS011;29197;44.788;10.366;2024-02-23T03:20:16;21.15;;;12.75;;
43606;SDS011;29197;44.788;10.366;2024-02-23T03:23:05;18.25;;;12.10;;
43606;SDS011;29197;44.788;10.366;2024-02-23T03:25:54;19.35;;;11.40;;
43606;SDS011;29197;44.788;10.366;2024-02-23T03:28:43;20.92;;;12.07;;
43606;SDS011;29197;44.788;10.366;2024-02-23T03:31:32;20.10;;;12.85;;
43606;SDS011;29197;44.788;10.366;2024-02-23T03:34:21;19.20;;;10.70;;
43606;SDS011;29197;44.788;10.366;2024-02-23T03:37:11;19.98;;;12.27;;
43606;SDS011;29197;44.788;10.366;2024-02-23T03:40:00;17.83;;;11.55;;
43606;SDS011;29197;44.788;10.366;2024-02-23T03:42:51;22.13;;;11.50;;
43606;SDS011;29197;44.788;10.366;2024-02-23T03:45:40;16.70;;;10.20;;
43606;SDS011;29197;44.788;10.366;2024-02-23T03:48:29;18.27;;;10.98;;
43606;SDS011;29197;44.788;10.366;2024-02-23T03:51:18;16.90;;;10.13;;
43606;SDS011;29197;44.788;10.366;2024-02-23T03:54:09;14.13;;;9.02;;
43606;SDS011;29197;44.788;10.366;2024-02-23T03:56:58;16.92;;;9.43;;
43606;SDS011;29197;44.788;10.366;2024-02-23T03:59:53;11.77;;;8.10;;
43606;SDS011;29197;44.788;10.366;2024-02-23T04:02:42;13.65;;;8.68;;
43606;SDS011;29197;44.788;10.366;2024-02-23T04:05:30;13.95;;;8.63;;
43606;SDS011;29197;44.788;10.366;2024-02-23T04:08:19;12.15;;;8.18;;
43606;SDS011;29197;44.788;10.366;2024-02-23T04:11:10;13.45;;;7.82;;
43606;SDS011;29197;44.788;10.366;2024-02-23T04:14:01;13.27;;;8.60;;
43606;SDS011;29197;44.788;10.366;2024-02-23T04:16:52;13.50;;;8.57;;
43606;SDS011;29197;44.788;10.366;2024-02-23T04:19:41;10.07;;;6.78;;
43606;SDS011;29197;44.788;10.366;2024-02-23T04:22:30;12.27;;;7.45;;
43606;SDS011;29197;44.788;10.366;2024-02-23T04:25:19;13.05;;;7.82;;
43606;SDS011;29197;44.788;10.366;2024-02-23T04:28:09;13.93;;;8.05;;
43606;SDS011;29197;44.788;10.366;2024-02-23T04:30:58;12.85;;;7.85;;
43606;SDS011;29197;44.788;10.366;2024-02-23T04:33:47;12.05;;;6.85;;
43606;SDS011;29197;44.788;10.366;2024-02-23T04:36:36;10.95;;;6.82;;
43606;SDS011;29197;44.788;10.366;2024-02-23T04:39:25;12.20;;;7.32;;
43606;SDS011;29197;44.788;10.366;2024-02-23T04:42:14;13.20;;;7.00;;
43606;SDS011;29197;44.788;10.366;2024-02-23T04:45:05;11.73;;;6.78;;
43606;SDS011;29197;44.788;10.366;2024-02-23T04:47:54;11.73;;;6.53;;
43606;SDS011;29197;44.788;10.366;2024-02-23T04:50:43;12.95;;;6.72;;
43606;SDS011;29197;44.788;10.366;2024-02-23T04:53:35;12.60;;;7.18;;
43606;SDS011;29197;44.788;10.366;2024-02-23T04:56:24;10.23;;;5.85;;
43606;SDS011;29197;44.788;10.366;2024-02-23T04:59:13;9.90;;;6.32;;
43606;SDS011;29197;44.788;10.366;2024-02-23T05:02:04;8.00;;;5.82;;
43606;SDS011;29197;44.788;10.366;2024-02-23T05:04:53;10.32;;;6.07;;
43606;SDS011;29197;44.788;10.366;2024-02-23T05:07:42;11.30;;;6.72;;
43606;SDS011;29197;44.788;10.366;2024-02-23T05:10:31;13.65;;;6.45;;
43606;SDS011;29197;44.788;10.366;2024-02-23T05:13:20;11.90;;;6.78;;
43606;SDS011;29197;44.788;10.366;2024-02-23T05:16:09;10.05;;;6.35;;
43606;SDS011;29197;44.788;10.366;2024-02-23T05:19:01;10.02;;;6.18;;
43606;SDS011;29197;44.788;10.366;2024-02-23T05:21:50;12.05;;;6.95;;
43606;SDS011;29197;44.788;10.366;2024-02-23T05:24:39;8.55;;;5.65;;
43606;SDS011;29197;44.788;10.366;2024-02-23T05:27:27;10.90;;;6.32;;
43606;SDS011;29197;44.788;10.366;2024-02-23T05:30:16;11.18;;;6.05;;
43606;SDS011;29197;44.788;10.366;2024-02-23T05:33:05;8.60;;;6.05;;
43606;SDS011;29197;44.788;10.366;2024-02-23T05:35:56;8.68;;;6.05;;
43606;SDS011;29197;44.788;10.366;2024-02-23T05:38:45;9.65;;;6.15;;
43606;SDS011;29197;44.788;10.366;2024-02-23T05:41:34;10.90;;;5.22;;
43606;SDS011;29197;44.788;10.366;2024-02-23T05:44:23;8.10;;;5.07;;
43606;SDS011;29197;44.788;10.366;2024-02-23T05:47:12;11.38;;;5.43;;
43606;SDS011;29197;44.788;10.366;2024-02-23T05:50:01;11.82;;;5.38;;
43606;SDS011;29197;44.788;10.366;2024-02-23T05:52:52;7.40;;;4.65;;
43606;SDS011;29197;44.788;10.366;2024-02-23T05:55:41;6.80;;;4.80;;
43606;SDS011;29197;44.788;10.366;2024-02-23T05:58:30;8.55;;;5.22;;
43606;SDS011;29197;44.788;10.366;2024-02-23T06:01:18;11.68;;;5.35;;
43606;SDS011;29197;44.788;10.366;2024-02-23T06:04:07;10.98;;;6.05;;
43606;SDS011;29197;44.788;10.366;2024-02-23T06:06:56;12.95;;;7.20;;
43606;SDS011;29197;44.788;10.366;2024-02-23T06:09:47;13.80;;;7.00;;
43606;SDS011;29197;44.788;10.366;2024-02-23T06:12:36;14.48;;;8.23;;
43606;SDS011;29197;44.788;10.366;2024-02-23T06:15:25;13.07;;;7.32;;
43606;SDS011;29197;44.788;10.366;2024-02-23T06:18:14;14.27;;;8.95;;
43606;SDS011;29197;44.788;10.366;2024-02-23T06:21:10;17.60;;;9.18;;
43606;SDS011;29197;44.788;10.366;2024-02-23T06:23:59;13.95;;;9.05;;
43606;SDS011;29197;44.788;10.366;2024-02-23T06:26:50;17.65;;;10.55;;
43606;SDS011;29197;44.788;10.366;2024-02-23T06:29:39;16.95;;;10.55;;
43606;SDS011;29197;44.788;10.366;2024-02-23T06:32:28;19.95;;;11.27;;
43606;SDS011;29197;44.788;10.366;2024-02-23T06:35:17;20.17;;;10.07;;
43606;SDS011;29197;44.788;10.366;2024-02-23T06:38:06;21.95;;;11.38;;
43606;SDS011;29197;44.788;10.366;2024-02-23T06:40:56;13.57;;;9.80;;
43606;SDS011;29197;44.788;10.366;2024-02-23T06:43:46;17.40;;;10.88;;
43606;SDS011;29197;44.788;10.366;2024-02-23T06:46:35;15.38;;;10.07;;
43606;SDS011;29197;44.788;10.366;2024-02-23T06:49:24;21.52;;;11.80;;
43606;SDS011;29197;44.788;10.366;2024-02-23T06:52:14;17.00;;;10.38;;
43606;SDS011;29197;44.788;10.366;2024-02-23T06:55:03;21.77;;;11.63;;
43606;SDS011;29197;44.788;10.366;2024-02-23T06:57:52;16.30;;;11.13;;
43606;SDS011;29197;44.788;10.366;2024-02-23T07:00:42;15.43;;;10.32;;
43606;SDS011;29197;44.788;10.366;2024-02-23T07:03:31;19.23;;;11.82;;
43606;SDS011;29197;44.788;10.366;2024-02-23T07:06:20;18.50;;;11.30;;
43606;SDS011;29197;44.788;10.366;2024-02-23T07:09:09;20.67;;;13.35;;
43606;SDS011;29197;44.788;10.366;2024-02-23T07:11:58;18.05;;;12.60;;
43606;SDS011;29197;44.788;10.366;2024-02-23T07:14:47;21.70;;;13.50;;
43606;SDS011;29197;44.788;10.366;2024-02-23T07:17:38;20.55;;;13.70;;
43606;SDS011;29197;44.788;10.366;2024-02-23T07:20:27;21.95;;;13.05;;
43606;SDS011;29197;44.788;10.366;2024-02-23T07:23:16;18.40;;;13.38;;
43606;SDS011;29197;44.788;10.366;2024-02-23T07:26:05;21.10;;;13.60;;
43606;SDS011;29197;44.788;10.366;2024-02-23T07:28:54;22.70;;;13.27;;
43606;SDS011;29197;44.788;10.366;2024-02-23T07:31:43;19.98;;;13.20;;
43606;SDS011;29197;44.788;10.366;2024-02-23T07:34:33;23.63;;;13.65;;
43606;SDS011;29197;44.788;10.366;2024-02-23T07:37:22;24.53;;;14.40;;
43606;SDS011;29197;44.788;10.366;2024-02-23T07:40:11;16.25;;;12.50;;
43606;SDS011;29197;44.788;10.366;2024-02-23T07:43:05;21.98;;;12.93;;
43606;SDS011;29197;44.788;10.366;2024-02-23T07:45:54;23.48;;;14.68;;
43606;SDS011;29197;44.788;10.366;2024-02-23T07:48:43;23.10;;;14.10;;
43606;SDS011;29197;44.788;10.366;2024-02-23T07:51:33;23.07;;;14.67;;
43606;SDS011;29197;44.788;10.366;2024-02-23T07:54:22;18.90;;;13.02;;
43606;SDS011;29197;44.788;10.366;2024-02-23T07:57:11;26.03;;;14.23;;
43606;SDS011;29197;44.788;10.366;2024-02-23T08:00:03;19.25;;;13.10;;
43606;SDS011;29197;44.788;10.366;2024-02-23T08:02:54;18.70;;;12.27;;
43606;SDS011;29197;44.788;10.366;2024-02-23T08:05:43;15.03;;;11.00;;
43606;SDS011;29197;44.788;10.366;2024-02-23T08:08:34;19.50;;;12.32;;
43606;SDS011;29197;44.788;10.366;2024-02-23T08:11:24;17.65;;;12.68;;
43606;SDS011;29197;44.788;10.366;2024-02-23T08:14:13;18.42;;;12.20;;
43606;SDS011;29197;44.788;10.366;2024-02-23T08:17:02;17.08;;;11.57;;
43606;SDS011;29197;44.788;10.366;2024-02-23T08:19:50;18.38;;;11.60;;
43606;SDS011;29197;44.788;10.366;2024-02-23T08:22:40;14.57;;;10.70;;
43606;SDS011;29197;44.788;10.366;2024-02-23T08:25:30;15.57;;;9.70;;
43606;SDS011;29197;44.788;10.366;2024-02-23T08:28:19;14.40;;;10.23;;
43606;SDS011;29197;44.788;10.366;2024-02-23T08:31:08;15.32;;;9.95;;
43606;SDS011;29197;44.788;10.366;2024-02-23T08:33:56;14.57;;;10.13;;
43606;SDS011;29197;44.788;10.366;2024-02-23T08:36:45;13.27;;;8.68;;
43606;SDS011;29197;44.788;10.366;2024-02-23T08:39:34;12.05;;;8.98;;
43606;SDS011;29197;44.788;10.366;2024-02-23T08:42:25;11.60;;;8.27;;
43606;SDS011;29197;44.788;10.366;2024-02-23T08:45:14;11.30;;;6.95;;
43606;SDS011;29197;44.788;10.366;2024-02-23T08:48:03;10.27;;;7.85;;
43606;SDS011;29197;44.788;10.366;2024-02-23T08:50:53;7.82;;;6.55;;
43606;SDS011;29197;44.788;10.366;2024-02-23T08:53:42;8.32;;;6.13;;
43606;SDS011;29197;44.788;10.366;2024-02-23T08:56:31;7.22;;;5.70;;
43606;SDS011;29197;44.788;10.366;2024-02-23T08:59:22;6.75;;;5.07;;
43606;SDS011;29197;44.788;10.366;2024-02-23T09:02:11;7.20;;;5.25;;
43606;SDS011;29197;44.788;10.366;2024-02-23T09:05:00;6.15;;;5.03;;
43606;SDS011;29197;44.788;10.366;2024-02-23T09:07:49;7.28;;;4.57;;
43606;SDS011;29197;44.788;10.366;2024-02-23T09:10:38;11.30;;;6.40;;
43606;SDS011;29197;44.788;10.366;2024-02-23T09:13:27;11.73;;;5.57;;
43606;SDS011;29197;44.788;10.366;2024-02-23T09:16:18;5.85;;;4.53;;
43606;SDS011;29197;44.788;10.366;2024-02-23T09:19:09;5.88;;;4.00;;
43606;SDS011;29197;44.788;10.366;2024-02-23T09:21:59;5.30;;;3.97;;
43606;SDS011;29197;44.788;10.366;2024-02-23T09:24:48;5.33;;;3.87;;
43606;SDS011;29197;44.788;10.366;2024-02-23T09:27:37;4.47;;;3.83;;
43606;SDS011;29197;44.788;10.366;2024-02-23T09:30:30;5.38;;;4.10;;
43606;SDS011;29197;44.788;10.366;2024-02-23T09:33:20;4.95;;;3.70;;
43606;SDS011;29197;44.788;10.366;2024-02-23T09:36:09;8.00;;;3.90;;
43606;SDS011;29197;44.788;10.366;2024-02-23T09:38:58;6.43;;;4.28;;
43606;SDS011;29197;44.788;10.366;2024-02-23T09:41:49;7.05;;;4.85;;
43606;SDS011;29197;44.788;10.366;2024-02-23T09:44:38;6.50;;;5.13;;
43606;SDS011;29197;44.788;10.366;2024-02-23T09:47:28;6.07;;;4.25;;
43606;SDS011;29197;44.788;10.366;2024-02-23T09:50:18;5.47;;;3.97;;
43606;SDS011;29197;44.788;10.366;2024-02-23T09:53:08;4.40;;;3.83;;
43606;SDS011;29197;44.788;10.366;2024-02-23T09:55:59;5.43;;;4.45;;
43606;SDS011;29197;44.788;10.366;2024-02-23T09:58:48;5.60;;;4.15;;
43606;SDS011;29197;44.788;10.366;2024-02-23T10:01:37;4.15;;;3.33;;
43606;SDS011;29197;44.788;10.366;2024-02-23T10:04:26;5.40;;;3.97;;
43606;SDS011;29197;44.788;10.366;2024-02-23T10:07:17;4.32;;;3.75;;
43606;SDS011;29197;44.788;10.366;2024-02-23T10:10:07;5.93;;;4.25;;
43606;SDS011;29197;44.788;10.366;2024-02-23T10:12:58;4.85;;;4.00;;
43606;SDS011;29197;44.788;10.366;2024-02-23T10:15:47;5.72;;;4.30;;
43606;SDS011;29197;44.788;10.366;2024-02-23T10:18:57;5.25;;;4.38;;
43606;SDS011;29197;44.788;10.366;2024-02-23T10:21:46;7.43;;;4.60;;
43606;SDS011;29197;44.788;10.366;2024-02-23T10:24:37;5.60;;;4.10;;
43606;SDS011;29197;44.788;10.366;2024-02-23T10:27:26;6.60;;;4.35;;
43606;SDS011;29197;44.788;10.366;2024-02-23T10:30:15;6.22;;;4.55;;
43606;SDS011;29197;44.788;10.366;2024-02-23T10:33:04;4.65;;;4.07;;
43606;SDS011;29197;44.788;10.366;2024-02-23T10:35:55;4.88;;;3.80;;
43606;SDS011;29197;44.788;10.366;2024-02-23T10:38:45;6.15;;;4.07;;
43606;SDS011;29197;44.788;10.366;2024-02-23T10:41:36;4.97;;;4.20;;
43606;SDS011;29197;44.788;10.366;2024-02-23T10:44:25;7.00;;;3.92;;
43606;SDS011;29197;44.788;10.366;2024-02-23T10:47:15;5.95;;;4.15;;
43606;SDS011;29197;44.788;10.366;2024-02-23T10:50:04;5.07;;;4.30;;
43606;SDS011;29197;44.788;10.366;2024-02-23T10:52:56;6.17;;;4.90;;
43606;SDS011;29197;44.788;10.366;2024-02-23T10:55:45;5.78;;;4.60;;
43606;SDS011;29197;44.788;10.366;2024-02-23T10:58:37;4.60;;;3.42;;
43606;SDS011;29197;44.788;10.366;2024-02-23T11:01:26;5.22;;;3.97;;
43606;SDS011;29197;44.788;10.366;2024-02-23T11:04:15;7.18;;;3.90;;
43606;SDS011;29197;44.788;10.366;2024-02-23T11:07:12;5.97;;;4.18;;
43606;SDS011;29197;44.788;10.366;2024-02-23T11:10:05;7.45;;;4.57;;
43606;SDS011;29197;44.788;10.366;2024-02-23T11:12:58;6.47;;;4.10;;
43606;SDS011;29197;44.788;10.366;2024-02-23T11:15:49;5.13;;;4.07;;
43606;SDS011;29197;44.788;10.366;2024-02-23T11:18:39;5.60;;;4.32;;
43606;SDS011;29197;44.788;10.366;2024-02-23T11:21:33;5.00;;;3.70;;
43606;SDS011;29197;44.788;10.366;2024-02-23T11:24:25;5.30;;;3.92;;
43606;SDS011;29197;44.788;10.366;2024-02-23T11:27:14;5.32;;;4.07;;
43606;SDS011;29197;44.788;10.366;2024-02-23T11:30:06;6.22;;;4.43;;
43606;SDS011;29197;44.788;10.366;2024-02-23T11:32:59;5.88;;;4.88;;
43606;SDS011;29197;44.788;10.366;2024-02-23T11:35:48;7.63;;;4.10;;
43606;SDS011;29197;44.788;10.366;2024-02-23T11:38:38;7.30;;;4.88;;
43606;SDS011;29197;44.788;10.366;2024-02-23T11:41:28;5.90;;;4.40;;
43606;SDS011;29197;44.788;10.366;2024-02-23T11:44:17;4.50;;;3.67;;
43606;SDS011;29197;44.788;10.366;2024-02-23T11:47:06;4.60;;;4.10;;
43606;SDS011;29197;44.788;10.366;2024-02-23T11:49:57;4.97;;;4.10;;
43606;SDS011;29197;44.788;10.366;2024-02-23T11:52:46;6.45;;;4.72;;
43606;SDS011;29197;44.788;10.366;2024-02-23T11:55:35;5.35;;;4.15;;
43606;SDS011;29197;44.788;10.366;2024-02-23T11:58:24;5.63;;;4.30;;
43606;SDS011;29197;44.788;10.366;2024-02-23T12:01:13;5.88;;;4.28;;
43606;SDS011;29197;44.788;10.366;2024-02-23T12:04:02;5.05;;;4.13;;
43606;SDS011;29197;44.788;10.366;2024-02-23T12:06:52;5.40;;;4.30;;
43606;SDS011;29197;44.788;10.366;2024-02-23T12:09:41;8.40;;;5.13;;
43606;SDS011;29197;44.788;10.366;2024-02-23T12:12:31;5.70;;;4.55;;
43606;SDS011;29197;44.788;10.366;2024-02-23T12:15:20;5.65;;;4.32;;
43606;SDS011;29197;44.788;10.366;2024-02-23T12:18:10;6.95;;;5.53;;
43606;SDS011;29197;44.788;10.366;2024-02-23T12:20:59;8.93;;;6.13;;
43606;SDS011;29197;44.788;10.366;2024-02-23T12:23:50;9.95;;;7.03;;
43606;SDS011;29197;44.788;10.366;2024-02-23T12:26:39;7.68;;;5.55;;
43606;SDS011;29197;44.788;10.366;2024-02-23T12:29:28;7.75;;;5.60;;
43606;SDS011;29197;44.788;10.366;2024-02-23T12:32:19;18.15;;;12.00;;
43606;SDS011;29197;44.788;10.366;2024-02-23T12:35:10;12.15;;;7.55;;
43606;SDS011;29197;44.788;10.366;2024-02-23T12:38:00;8.70;;;6.15;;
43606;SDS011;29197;44.788;10.366;2024-02-23T12:40:50;8.05;;;5.70;;
43606;SDS011;29197;44.788;10.366;2024-02-23T12:43:39;6.13;;;5.50;;
43606;SDS011;29197;44.788;10.366;2024-02-23T12:46:32;13.27;;;8.50;;
43606;SDS011;29197;44.788;10.366;2024-02-23T12:49:21;7.03;;;5.50;;
43606;SDS011;29197;44.788;10.366;2024-02-23T12:52:10;10.45;;;7.93;;
43606;SDS011;29197;44.788;10.366;2024-02-23T12:54:58;10.88;;;6.70;;
43606;SDS011;29197;44.788;10.366;2024-02-23T12:57:49;9.27;;;6.82;;
43606;SDS011;29197;44.788;10.366;2024-02-23T13:00:38;8.88;;;5.63;;
43606;SDS011;29197;44.788;10.366;2024-02-23T13:03:27;8.77;;;6.22;;
43606;SDS011;29197;44.788;10.366;2024-02-23T13:06:16;10.40;;;7.30;;
43606;SDS011;29197;44.788;10.366;2024-02-23T13:09:05;10.00;;;6.63;;
43606;SDS011;29197;44.788;10.366;2024-02-23T13:11:55;6.47;;;5.18;;
43606;SDS011;29197;44.788;10.366;2024-02-23T13:14:46;8.00;;;5.75;;
43606;SDS011;29197;44.788;10.366;2024-02-23T13:17:35;7.85;;;6.28;;
43606;SDS011;29197;44.788;10.366;2024-02-23T13:20:24;7.60;;;5.32;;
43606;SDS011;29197;44.788;10.366;2024-02-23T13:23:13;8.45;;;5.75;;
43606;SDS011;29197;44.788;10.366;2024-02-23T13:26:03;5.97;;;4.78;;
43606;SDS011;29197;44.788;10.366;2024-02-23T13:28:52;8.25;;;5.35;;
43606;SDS011;29197;44.788;10.366;2024-02-23T13:31:42;7.55;;;5.85;;
43606;SDS011;29197;44.788;10.366;2024-02-23T13:34:31;6.53;;;4.88;;
43606;SDS011;29197;44.788;10.366;2024-02-23T13:37:20;8.50;;;5.32;;
43606;SDS011;29197;44.788;10.366;2024-02-23T13:40:10;5.10;;;3.97;;
43606;SDS011;29197;44.788;10.366;2024-02-23T13:42:59;5.50;;;3.92;;
43606;SDS011;29197;44.788;10.366;2024-02-23T13:45:49;5.68;;;4.07;;
43606;SDS011;29197;44.788;10.366;2024-02-23T13:48:40;7.13;;;5.45;;
43606;SDS011;29197;44.788;10.366;2024-02-23T13:51:29;5.60;;;4.60;;
43606;SDS011;29197;44.788;10.366;2024-02-23T13:54:18;7.85;;;5.20;;
43606;SDS011;29197;44.788;10.366;2024-02-23T13:57:07;6.35;;;4.55;;
43606;SDS011;29197;44.788;10.366;2024-02-23T13:59:56;5.28;;;4.28;;
43606;SDS011;29197;44.788;10.366;2024-02-23T14:02:45;7.13;;;4.85;;
43606;SDS011;29197;44.788;10.366;2024-02-23T14:05:36;5.93;;;4.47;;
43606;SDS011;29197;44.788;10.366;2024-02-23T14:08:25;6.75;;;4.97;;
43606;SDS011;29197;44.788;10.366;2024-02-23T14:11:14;6.78;;;5.10;;
43606;SDS011;29197;44.788;10.366;2024-02-23T14:14:03;6.85;;;5.35;;
43606;SDS011;29197;44.788;10.366;2024-02-23T14:16:53;6.45;;;5.70;;
43606;SDS011;29197;44.788;10.366;2024-02-23T14:19:42;6.22;;;5.47;;
43606;SDS011;29197;44.788;10.366;2024-02-23T14:22:32;9.15;;;8.02;;
43606;SDS011;29197;44.788;10.366;2024-02-23T14:25:21;14.27;;;10.98;;
43606;SDS011;29197;44.788;10.366;2024-02-23T14:28:10;14.55;;;11.25;;
43606;SDS011;29197;44.788;10.366;2024-02-23T14:31:00;13.88;;;10.48;;
43606;SDS011;29197;44.788;10.366;2024-02-23T14:33:48;9.23;;;7.30;;
43606;SDS011;29197;44.788;10.366;2024-02-23T14:36:38;8.10;;;6.55;;
43606;SDS011;29197;44.788;10.366;2024-02-23T14:39:28;7.55;;;6.68;;
43606;SDS011;29197;44.788;10.366;2024-02-23T14:42:17;7.78;;;6.97;;
43606;SDS011;29197;44.788;10.366;2024-02-23T14:45:06;7.88;;;6.75;;
43606;SDS011;29197;44.788;10.366;2024-02-23T14:47:56;10.35;;;6.25;;
43606;SDS011;29197;44.788;10.366;2024-02-23T14:50:45;9.65;;;6.60;;
43606;SDS011;29197;44.788;10.366;2024-02-23T14:53:34;7.55;;;6.07;;
43606;SDS011;29197;44.788;10.366;2024-02-23T14:56:25;7.57;;;6.78;;
43606;SDS011;29197;44.788;10.366;2024-02-23T14:59:14;6.93;;;6.18;;
43606;SDS011;29197;44.788;10.366;2024-02-23T15:02:03;8.30;;;6.65;;
43606;SDS011;29197;44.788;10.366;2024-02-23T15:04:52;8.60;;;6.85;;
43606;SDS011;29197;44.788;10.366;2024-02-23T15:07:41;8.20;;;7.32;;
43606;SDS011;29197;44.788;10.366;2024-02-23T15:10:30;11.02;;;7.70;;
43606;SDS011;29197;44.788;10.366;2024-02-23T15:13:20;8.10;;;7.30;;
43606;SDS011;29197;44.788;10.366;2024-02-23T15:16:09;8.38;;;6.78;;
43606;SDS011;29197;44.788;10.366;2024-02-23T15:18:58;8.40;;;6.90;;
43606;SDS011;29197;44.788;10.366;2024-02-23T15:21:47;9.98;;;7.68;;
43606;SDS011;29197;44.788;10.366;2024-02-23T15:24:36;8.93;;;7.03;;
43606;SDS011;29197;44.788;10.366;2024-02-23T15:27:25;7.75;;;6.47;;
43606;SDS011;29197;44.788;10.366;2024-02-23T15:30:16;8.77;;;7.50;;
43606;SDS011;29197;44.788;10.366;2024-02-23T15:33:05;10.18;;;8.40;;
43606;SDS011;29197;44.788;10.366;2024-02-23T15:35:54;10.57;;;8.15;;
43606;SDS011;29197;44.788;10.366;2024-02-23T15:38:43;8.85;;;7.60;;
43606;SDS011;29197;44.788;10.366;2024-02-23T15:41:32;10.73;;;8.10;;
43606;SDS011;29197;44.788;10.366;2024-02-23T15:44:22;13.25;;;9.98;;
43606;SDS011;29197;44.788;10.366;2024-02-23T15:47:12;12.07;;;9.23;;
43606;SDS011;29197;44.788;10.366;2024-02-23T15:50:01;10.50;;;9.13;;
43606;SDS011;29197;44.788;10.366;2024-02-23T15:53:10;10.98;;;9.02;;
43606;SDS011;29197;44.788;10.366;2024-02-23T15:55:59;13.23;;;10.20;;
43606;SDS011;29197;44.788;10.366;2024-02-23T15:58:48;12.73;;;9.63;;
43606;SDS011;29197;44.788;10.366;2024-02-23T16:01:37;12.43;;;10.40;;
43606;SDS011;29197;44.788;10.366;2024-02-23T16:04:27;14.30;;;10.90;;
43606;SDS011;29197;44.788;10.366;2024-02-23T16:07:16;14.82;;;11.70;;
43606;SDS011;29197;44.788;10.366;2024-02-23T16:10:05;15.07;;;11.55;;
43606;SDS011;29197;44.788;10.366;2024-02-23T16:12:55;18.65;;;12.82;;
43606;SDS011;29197;44.788;10.366;2024-02-23T16:15:45;16.85;;;11.85;;
43606;SDS011;29197;44.788;10.366;2024-02-23T16:18:34;14.82;;;12.68;;
43606;SDS011;29197;44.788;10.366;2024-02-23T16:21:24;15.23;;;11.55;;
43606;SDS011;29197;44.788;10.366;2024-02-23T16:24:13;14.75;;;11.73;;
43606;SDS011;29197;44.788;10.366;2024-02-23T16:27:02;14.90;;;11.93;;
43606;SDS011;29197;44.788;10.366;2024-02-23T16:29:51;15.68;;;12.40;;
43606;SDS011;29197;44.788;10.366;2024-02-23T16:32:40;13.65;;;11.85;;